createdAt,value
2022-09-12T00:01:52.098Z,101562.53
2022-09-12T00:04:20.825Z,101557.06
2022-09-12T00:06:50.755Z,101559.41
2022-09-12T00:09:19.055Z,101560.38
2022-09-12T00:11:49.046Z,101562.88
2022-09-12T00:14:24.681Z,101560.13
2022-09-12T00:16:53.009Z,101555.38
2022-09-12T00:19:25.573Z,101558.59
2022-09-12T00:21:54.620Z,101557.16
2022-09-12T00:24:25.436Z,101553.16
2022-09-12T00:26:58.995Z,101557.00
2022-09-12T00:29:28.244Z,101554.41
2022-09-12T00:31:58.813Z,101553.91
2022-09-12T00:34:27.714Z,101548.75
2022-09-12T00:36:58.865Z,101545.13
2022-09-12T00:39:27.656Z,101548.19
2022-09-12T00:41:57.622Z,101551.81
2022-09-12T00:44:47.020Z,101548.56
2022-09-12T00:47:20.710Z,101555.66
2022-09-12T00:49:53.813Z,101548.28
2022-09-12T00:52:28.662Z,101551.81
2022-09-12T00:55:02.124Z,101554.00
2022-09-12T00:57:36.888Z,101553.75
2022-09-12T01:00:15.967Z,101549.97
2022-09-12T01:02:48.324Z,101552.94
2022-09-12T01:05:22.687Z,101558.66
2022-09-12T01:07:53.795Z,101554.59
2022-09-12T01:10:26.158Z,101550.19
2022-09-12T01:12:56.664Z,101559.81
2022-09-12T01:15:27.513Z,101555.91
2022-09-12T01:18:11.873Z,101554.75
2022-09-12T01:21:08.927Z,101559.53
2022-09-12T01:24:14.571Z,101559.44
2022-09-12T01:27:16.886Z,101552.88
2022-09-12T01:30:18.587Z,101560.69
2022-09-12T01:33:04.367Z,101552.16
2022-09-12T01:35:47.605Z,101553.25
2022-09-12T01:38:26.487Z,101555.19
2022-09-12T01:41:12.984Z,101554.50
2022-09-12T01:43:48.537Z,101548.47
2022-09-12T01:46:24.481Z,101552.97
2022-09-12T01:48:59.333Z,101560.28
2022-09-12T01:51:34.083Z,101557.16
2022-09-12T01:54:16.583Z,101556.28
2022-09-12T01:56:47.209Z,101555.13
2022-09-12T01:59:22.066Z,101556.25
2022-09-12T02:01:57.655Z,101548.63
2022-09-12T02:04:34.161Z,101544.19
2022-09-12T02:07:12.413Z,101548.19
2022-09-12T02:09:46.529Z,101548.91
2022-09-12T02:12:23.311Z,101542.03
2022-09-12T02:14:57.073Z,101550.41
2022-09-12T02:17:28.110Z,101545.06
2022-09-12T02:20:03.563Z,101549.78
2022-09-12T02:22:35.009Z,101538.28
2022-09-12T02:25:06.480Z,101534.66
2022-09-12T02:27:42.380Z,101539.88
2022-09-12T02:30:14.564Z,101544.91
2022-09-12T02:32:58.531Z,101537.13
2022-09-12T02:35:40.424Z,101530.25
2022-09-12T02:38:14.627Z,101535.84
2022-09-12T02:40:45.175Z,101538.88
2022-09-12T02:43:13.954Z,101536.28
2022-09-12T02:45:48.108Z,101534.63
2022-09-12T02:48:24.147Z,101535.50
2022-09-12T02:50:53.334Z,101538.69
2022-09-12T02:53:23.569Z,101542.06
2022-09-12T02:55:53.008Z,101542.47
2022-09-12T02:58:27.295Z,101538.44
2022-09-12T03:01:05.664Z,101535.63
2022-09-12T03:03:55.355Z,101537.16
2022-09-12T03:06:32.547Z,101533.19
2022-09-12T03:09:09.148Z,101539.75
2022-09-12T03:12:04.468Z,101528.97
2022-09-12T03:15:01.706Z,101530.94
2022-09-12T03:17:44.153Z,101536.28
2022-09-12T03:20:22.096Z,101532.81
2022-09-12T03:22:59.123Z,101533.94
2022-09-12T03:25:37.954Z,101532.00
2022-09-12T03:28:10.515Z,101531.13
2022-09-12T03:30:48.813Z,101533.13
2022-09-12T03:33:20.041Z,101529.47
2022-09-12T03:35:52.149Z,101532.66
2022-09-12T03:38:21.558Z,101534.50
2022-09-12T03:40:54.959Z,101535.78
2022-09-12T03:43:27.846Z,101537.22
2022-09-12T03:45:57.971Z,101538.94
2022-09-12T03:48:26.500Z,101539.38
2022-09-12T03:51:01.712Z,101546.25
2022-09-12T03:53:31.048Z,101544.72
2022-09-12T03:56:07.921Z,101544.19
2022-09-12T03:58:37.202Z,101545.03
2022-09-12T04:01:16.579Z,101549.66
2022-09-12T04:03:47.116Z,101545.53
2022-09-12T04:06:19.661Z,101544.75
2022-09-12T04:08:50.628Z,101547.59
2022-09-12T04:11:21.146Z,101538.81
2022-09-12T04:13:50.045Z,101545.16
2022-09-12T04:16:19.643Z,101544.47
2022-09-12T04:18:54.452Z,101542.91
2022-09-12T04:21:28.500Z,101544.31
2022-09-12T04:24:00.844Z,101548.44
2022-09-12T04:26:33.716Z,101551.19
2022-09-12T04:29:02.470Z,101548.69
2022-09-12T04:31:31.463Z,101546.19
2022-09-12T04:34:02.764Z,101538.16
2022-09-12T04:36:36.095Z,101547.16
2022-09-12T04:39:06.469Z,101541.03
2022-09-12T04:41:38.027Z,101551.63
2022-09-12T04:44:08.921Z,101548.22
2022-09-12T04:46:41.100Z,101539.44
2022-09-12T04:49:10.499Z,101555.22
2022-09-12T04:51:43.579Z,101546.38
2022-09-12T04:54:16.755Z,101554.00
2022-09-12T04:56:47.347Z,101554.06
2022-09-12T04:59:18.211Z,101549.25
2022-09-12T05:01:48.636Z,101555.06
2022-09-12T05:04:17.509Z,101551.59
2022-09-12T05:06:48.337Z,101556.19
2022-09-12T05:09:17.737Z,101551.78
2022-09-12T05:12:03.905Z,101551.09
2022-09-12T05:14:34.070Z,101562.31
2022-09-12T05:17:02.966Z,101554.03
2022-09-12T05:19:32.949Z,101555.59
2022-09-12T05:22:03.148Z,101561.53
2022-09-12T05:24:32.710Z,101562.25
2022-09-12T05:27:01.175Z,101551.28
2022-09-12T05:29:40.353Z,101561.47
2022-09-12T05:32:09.794Z,101568.03
2022-09-12T05:34:38.853Z,101564.06
2022-09-12T05:37:13.190Z,101576.81
2022-09-12T05:39:41.754Z,101569.72
2022-09-12T05:42:13.707Z,101572.72
2022-09-12T05:44:45.427Z,101570.97
2022-09-12T05:47:13.870Z,101570.66
2022-09-12T05:49:43.561Z,101571.97
2022-09-12T05:52:16.252Z,101565.41
2022-09-12T05:54:57.825Z,101568.84
2022-09-12T05:57:26.251Z,101578.78
2022-09-12T05:59:54.535Z,101562.53
2022-09-12T06:02:23.212Z,101564.91
2022-09-12T06:04:54.901Z,101567.31
2022-09-12T06:07:24.996Z,101576.03
2022-09-12T06:09:54.151Z,101577.63
2022-09-12T06:12:22.597Z,101571.88
2022-09-12T06:14:51.779Z,101572.91
2022-09-12T06:17:20.834Z,101574.16
2022-09-12T06:19:50.410Z,101569.56
2022-09-12T06:22:19.359Z,101575.66
2022-09-12T06:24:49.128Z,101570.13
2022-09-12T06:27:19.433Z,101568.91
2022-09-12T06:29:47.855Z,101565.75
2022-09-12T06:32:16.849Z,101574.41
2022-09-12T06:34:49.143Z,101576.69
2022-09-12T06:37:19.948Z,101584.69
2022-09-12T06:39:54.116Z,101583.81
2022-09-12T06:42:22.606Z,101582.94
2022-09-12T06:44:51.317Z,101586.44
2022-09-12T06:50:06.907Z,101585.50
2022-09-12T06:52:36.630Z,101592.50
2022-09-12T06:55:09.318Z,101600.38
2022-09-12T06:57:39.117Z,101594.41
2022-09-12T07:00:11.887Z,101601.56
2022-09-12T07:02:42.419Z,101602.94
2022-09-12T07:05:12.129Z,101601.72
2022-09-12T07:07:40.662Z,101610.41
2022-09-12T07:10:12.729Z,101624.97
2022-09-12T07:12:41.438Z,101633.72
2022-09-12T07:15:24.193Z,101638.31
2022-09-12T07:17:52.832Z,101629.81
2022-09-12T07:20:23.257Z,101622.47
2022-09-12T07:22:52.520Z,101611.97
2022-09-12T07:25:22.733Z,101583.72
2022-09-12T07:27:51.349Z,101560.28
2022-09-12T07:30:21.313Z,101500.53
2022-09-12T07:32:53.956Z,101463.09
2022-09-12T07:35:23.742Z,101454.88
2022-09-12T07:37:58.070Z,101447.28
2022-09-12T07:40:29.912Z,101438.63
2022-09-12T07:42:59.749Z,101433.56
2022-09-12T07:45:31.693Z,101435.22
2022-09-12T07:48:01.036Z,101432.09
2022-09-12T07:50:29.401Z,101442.66
2022-09-12T07:53:02.813Z,101441.19
2022-09-12T07:55:36.247Z,101439.91
2022-09-12T07:58:05.374Z,101448.25
2022-09-12T08:00:38.052Z,101441.13
2022-09-12T08:03:09.156Z,101462.72
2022-09-12T08:05:42.899Z,101441.94
2022-09-12T08:08:12.173Z,101449.44
2022-09-12T08:10:42.624Z,101458.38
2022-09-12T08:13:11.961Z,101462.50
2022-09-12T08:16:03.853Z,101455.38
2022-09-12T08:18:38.956Z,101458.34
2022-09-12T08:21:11.029Z,101448.69
2022-09-12T08:23:43.354Z,101444.72
2022-09-12T08:26:14.445Z,101452.69
2022-09-12T08:28:48.093Z,101452.91
2022-09-12T08:31:19.324Z,101441.53
2022-09-12T08:33:48.442Z,101430.72
2022-09-12T08:36:19.786Z,101427.16
2022-09-12T08:38:50.776Z,101424.47
2022-09-12T08:41:32.864Z,101429.69
2022-09-12T08:44:15.946Z,101431.50
2022-09-12T08:46:58.188Z,101439.41
2022-09-12T08:49:31.242Z,101436.81
2022-09-12T08:52:05.190Z,101429.03
2022-09-12T08:54:41.699Z,101430.03
2022-09-12T08:57:13.130Z,101437.22
2022-09-12T08:59:45.227Z,101441.22
2022-09-12T09:02:34.640Z,101433.78
2022-09-12T09:05:13.775Z,101438.28
2022-09-12T09:08:12.062Z,101424.41
2022-09-12T09:10:50.589Z,101420.56
2022-09-12T09:13:52.668Z,101417.19
2022-09-12T09:16:28.470Z,101404.88
2022-09-12T09:19:02.511Z,101413.53
2022-09-12T09:21:36.739Z,101412.53
2022-09-12T09:24:12.969Z,101405.19
2022-09-12T09:26:47.929Z,101409.94
2022-09-12T09:29:20.917Z,101399.25
2022-09-12T09:31:53.727Z,101395.69
2022-09-12T09:34:26.191Z,101399.88
2022-09-12T09:37:44.570Z,101396.78
2022-09-12T09:40:24.901Z,101389.97
2022-09-12T09:43:10.281Z,101394.97
2022-09-12T09:45:45.806Z,101396.19
2022-09-12T09:48:23.654Z,101405.16
2022-09-12T09:50:53.120Z,101399.53
2022-09-12T09:53:37.556Z,101395.75
2022-09-12T09:56:14.752Z,101399.47
2022-09-12T09:58:53.837Z,101400.03
2022-09-12T10:01:29.436Z,101394.75
2022-09-12T10:04:01.621Z,101394.59
2022-09-12T10:06:34.654Z,101404.91
2022-09-12T10:09:25.712Z,101398.25
2022-09-12T10:11:56.793Z,101396.34
2022-09-12T10:14:40.087Z,101379.03
2022-09-12T10:17:33.787Z,101382.84
2022-09-12T10:20:22.706Z,101380.63
2022-09-12T10:22:51.345Z,101378.69
2022-09-12T10:25:22.837Z,101374.25
2022-09-12T10:27:55.737Z,101365.38
2022-09-12T10:30:29.246Z,101374.13
2022-09-12T10:33:10.397Z,101362.19
2022-09-12T10:35:51.585Z,101359.91
2022-09-12T10:38:24.805Z,101357.94
2022-09-12T10:41:06.845Z,101352.03
2022-09-12T10:43:38.216Z,101352.88
2022-09-12T10:46:30.939Z,101353.31
2022-09-12T10:49:23.798Z,101353.91
2022-09-12T10:51:56.639Z,101349.88
2022-09-12T10:54:28.005Z,101357.19
2022-09-12T10:57:33.706Z,101359.44
2022-09-12T11:00:17.627Z,101357.97
2022-09-12T11:02:59.701Z,101346.81
2022-09-12T11:05:40.417Z,101331.41
2022-09-12T11:08:19.611Z,101340.28
2022-09-12T11:10:57.302Z,101330.03
2022-09-12T11:13:37.146Z,101343.78
2022-09-12T11:16:18.854Z,101339.28
2022-09-12T11:19:03.910Z,101343.50
2022-09-12T11:21:49.397Z,101338.47
2022-09-12T11:24:37.645Z,101336.41
2022-09-12T11:27:25.597Z,101330.47
2022-09-12T11:30:03.539Z,101329.97
2022-09-12T11:32:50.605Z,101318.97
2022-09-12T11:35:24.925Z,101321.38
2022-09-12T11:38:08.574Z,101324.41
2022-09-12T11:40:42.956Z,101329.09
2022-09-12T11:43:23.947Z,101316.16
2022-09-12T11:45:54.844Z,101319.13
2022-09-12T11:48:36.178Z,101314.22
2022-09-12T11:51:10.015Z,101314.00
2022-09-12T11:53:42.929Z,101319.13
2022-09-12T11:56:15.716Z,101314.81
2022-09-12T11:58:47.923Z,101310.59
2022-09-12T12:01:22.106Z,101310.16
2022-09-12T12:03:52.785Z,101314.97
2022-09-12T12:06:27.343Z,101318.31
2022-09-12T12:08:56.142Z,101312.09
2022-09-12T12:11:32.210Z,101306.34
2022-09-12T12:14:04.719Z,101301.38
2022-09-12T12:16:38.841Z,101303.06
2022-09-12T12:19:24.755Z,101304.06
2022-09-12T12:21:53.852Z,101295.69
2022-09-12T12:24:25.142Z,101303.28
2022-09-12T12:27:04.489Z,101307.81
2022-09-12T12:29:44.252Z,101297.91
2022-09-12T12:32:25.301Z,101294.44
2022-09-12T12:35:03.812Z,101288.28
2022-09-12T12:37:54.195Z,101289.59
2022-09-12T12:40:26.970Z,101279.66
2022-09-12T12:43:07.785Z,101279.75
2022-09-12T12:46:05.301Z,101280.22
2022-09-12T12:48:46.366Z,101272.50
2022-09-12T12:51:49.854Z,101276.03
2022-09-12T12:54:53.979Z,101269.56
2022-09-12T12:57:40.113Z,101263.16
2022-09-12T13:00:27.819Z,101264.16
2022-09-12T13:03:03.240Z,101256.56
2022-09-12T13:05:42.584Z,101256.31
2022-09-12T13:08:25.227Z,101269.28
2022-09-12T13:10:57.616Z,101257.97
2022-09-12T13:13:32.111Z,101246.75
2022-09-12T13:16:00.875Z,101244.38
2022-09-12T13:18:35.891Z,101250.75
2022-09-12T13:21:14.640Z,101247.09
2022-09-12T13:23:43.547Z,101247.56
2022-09-12T13:26:14.156Z,101242.81
2022-09-12T13:28:43.681Z,101239.53
2022-09-12T13:31:25.155Z,101238.25
2022-09-12T13:33:57.105Z,101243.03
2022-09-12T13:36:51.149Z,101246.28
2022-09-12T13:39:25.105Z,101239.38
2022-09-12T13:42:19.226Z,101242.69
2022-09-12T13:44:53.070Z,101232.19
2022-09-12T13:47:28.631Z,101233.66
2022-09-12T13:49:58.775Z,101229.16
2022-09-12T13:52:35.571Z,101220.34
2022-09-12T13:55:29.541Z,101215.88
2022-09-12T13:58:00.659Z,101217.38
2022-09-12T14:00:32.318Z,101216.94
2022-09-12T14:03:43.198Z,101211.41
2022-09-12T14:06:13.613Z,101216.34
2022-09-12T14:08:44.718Z,101212.69
2022-09-12T14:11:22.940Z,101199.63
2022-09-12T14:13:52.887Z,101191.88
2022-09-12T14:16:23.453Z,101190.78
2022-09-12T14:18:54.411Z,101191.38
2022-09-12T14:21:35.402Z,101181.63
2022-09-12T14:24:08.687Z,101187.72
2022-09-12T14:26:40.686Z,101174.91
2022-09-12T14:29:13.994Z,101170.84
2022-09-12T14:31:45.751Z,101180.88
2022-09-12T14:34:17.296Z,101175.97
2022-09-12T14:36:49.128Z,101173.63
2022-09-12T14:39:28.832Z,101177.63
2022-09-12T14:42:07.442Z,101173.66
2022-09-12T14:44:37.371Z,101167.78
2022-09-12T14:47:21.282Z,101157.91
2022-09-12T14:49:51.724Z,101153.19
2022-09-12T14:52:30.054Z,101152.03
2022-09-12T14:55:02.201Z,101157.03
2022-09-12T14:57:39.075Z,101155.03
2022-09-12T15:00:24.384Z,101156.69
2022-09-12T15:02:54.901Z,101162.34
2022-09-12T15:05:29.037Z,101162.81
2022-09-12T15:08:02.011Z,101148.66
2022-09-12T15:10:39.384Z,101149.03
2022-09-12T15:13:20.939Z,101153.53
2022-09-12T15:15:52.694Z,101151.75
2022-09-12T15:18:25.111Z,101154.72
2022-09-12T15:20:57.060Z,101141.69
2022-09-12T15:23:34.128Z,101150.47
2022-09-12T15:26:07.764Z,101144.09
2022-09-12T15:28:36.175Z,101141.72
2022-09-12T15:31:13.016Z,101144.56
2022-09-12T15:33:42.835Z,101146.47
2022-09-12T15:36:18.239Z,101143.06
2022-09-12T15:38:47.832Z,101147.00
2022-09-12T15:41:20.022Z,101153.59
2022-09-12T15:43:51.867Z,101155.28
2022-09-12T15:46:20.716Z,101149.72
2022-09-12T15:48:48.929Z,101146.09
2022-09-12T15:51:18.906Z,101136.00
2022-09-12T15:53:48.723Z,101136.56
2022-09-12T15:56:22.678Z,101126.13
2022-09-12T15:59:00.009Z,101135.59
2022-09-12T16:01:30.321Z,101137.66
2022-09-12T16:03:59.381Z,101141.16
2022-09-12T16:06:37.014Z,101142.78
2022-09-12T16:09:07.170Z,101149.00
2022-09-12T16:11:37.728Z,101143.22
2022-09-12T16:14:09.424Z,101148.47
2022-09-12T16:16:37.669Z,101143.41
2022-09-12T16:19:06.967Z,101135.63
2022-09-12T16:21:35.275Z,101132.94
2022-09-12T16:24:04.073Z,101129.63
2022-09-12T16:26:32.474Z,101128.16
2022-09-12T16:29:02.296Z,101127.34
2022-09-12T16:31:31.681Z,101126.72
2022-09-12T16:34:00.134Z,101123.19
2022-09-12T16:36:28.816Z,101111.81
2022-09-12T16:39:00.055Z,101109.25
2022-09-12T16:41:28.787Z,101102.50
2022-09-12T16:43:57.315Z,101101.16
2022-09-12T16:46:29.924Z,101095.88
2022-09-12T16:48:59.524Z,101089.38
2022-09-12T16:51:29.713Z,101094.00
2022-09-12T16:54:00.852Z,101091.25
2022-09-12T16:56:30.013Z,101088.72
2022-09-12T16:58:59.174Z,101082.41
2022-09-12T17:01:29.513Z,101091.25
2022-09-12T17:03:59.401Z,101087.66
2022-09-12T17:06:29.604Z,101082.38
2022-09-12T17:09:02.910Z,101085.25
2022-09-12T17:11:33.401Z,101074.22
2022-09-12T17:14:05.402Z,101085.75
2022-09-12T17:16:38.615Z,101085.72
2022-09-12T17:19:07.826Z,101086.38
2022-09-12T17:21:37.185Z,101086.38
2022-09-12T17:24:06.501Z,101088.31
2022-09-12T17:26:35.243Z,101088.63
2022-09-12T17:29:03.627Z,101089.44
2022-09-12T17:31:32.707Z,101081.78
2022-09-12T17:34:04.197Z,101084.28
2022-09-12T17:36:33.260Z,101087.66
2022-09-12T17:39:03.610Z,101084.41
2022-09-12T17:41:33.290Z,101087.94
2022-09-12T17:44:07.580Z,101086.09
2022-09-12T17:46:38.391Z,101086.28
2022-09-12T17:49:10.713Z,101089.16
2022-09-12T17:51:39.187Z,101078.78
2022-09-12T17:54:09.356Z,101080.09
2022-09-12T17:56:38.273Z,101075.84
2022-09-12T17:59:08.209Z,101069.88
2022-09-12T18:01:54.144Z,101072.06
2022-09-12T18:04:23.830Z,101063.56
2022-09-12T18:06:52.974Z,101064.50
2022-09-12T18:09:23.409Z,101058.88
2022-09-12T18:11:53.314Z,101055.09
2022-09-12T18:14:24.938Z,101055.56
2022-09-12T18:16:53.796Z,101057.88
2022-09-12T18:19:23.654Z,101053.78
2022-09-12T18:21:56.126Z,101049.81
2022-09-12T18:24:24.673Z,101050.63
2022-09-12T18:26:52.943Z,101047.84
2022-09-12T18:29:21.639Z,101045.06
2022-09-12T18:31:50.684Z,101039.25
2022-09-12T18:34:19.906Z,101036.88
2022-09-12T18:36:54.309Z,101025.00
2022-09-12T18:39:26.900Z,101024.31
2022-09-12T18:41:57.353Z,101026.34
2022-09-12T18:44:28.480Z,101020.69
2022-09-12T18:46:57.192Z,101029.13
2022-09-12T18:49:25.769Z,101020.16
2022-09-12T18:51:59.676Z,101017.44
2022-09-12T18:54:31.828Z,101012.69
2022-09-12T18:57:01.778Z,101016.13
2022-09-12T18:59:30.184Z,101021.53
2022-09-12T19:01:58.703Z,101023.78
2022-09-12T19:04:27.162Z,101024.31
2022-09-12T19:06:58.292Z,101024.00
2022-09-12T19:09:26.882Z,101021.69
2022-09-12T19:11:55.245Z,101013.94
2022-09-12T19:14:26.203Z,101010.53
2022-09-12T19:16:55.129Z,101006.09
2022-09-12T19:19:23.523Z,101008.28
2022-09-12T19:21:54.212Z,100999.59
2022-09-12T19:24:24.730Z,100995.88
2022-09-12T19:26:53.017Z,100996.03
2022-09-12T19:29:21.740Z,100987.75
2022-09-12T19:31:53.038Z,100976.91
2022-09-12T19:34:21.441Z,100984.03
2022-09-12T19:36:57.297Z,100978.91
2022-09-12T19:39:28.350Z,100971.81
2022-09-12T19:41:57.143Z,100969.25
2022-09-12T19:44:27.631Z,100974.13
2022-09-12T19:46:56.429Z,100975.31
2022-09-12T19:49:25.042Z,100973.06
2022-09-12T19:51:53.565Z,100964.53
2022-09-12T19:54:22.478Z,100969.44
2022-09-12T19:56:52.515Z,100972.63
2022-09-12T19:59:23.765Z,100968.22
2022-09-12T20:01:54.593Z,100959.22
2022-09-12T20:04:23.918Z,100954.66
2022-09-12T20:06:52.730Z,100950.31
2022-09-12T20:09:26.362Z,100943.56
2022-09-12T20:11:56.619Z,100942.78
2022-09-12T20:14:25.191Z,100951.06
2022-09-12T20:16:53.675Z,100945.66
2022-09-12T20:19:24.714Z,100943.31
2022-09-12T20:21:55.692Z,100936.03
2022-09-12T20:24:24.017Z,100941.44
2022-09-12T20:26:52.361Z,100936.38
2022-09-12T20:29:22.940Z,100936.50
2022-09-12T20:31:52.380Z,100927.03
2022-09-12T20:34:22.470Z,100925.88
2022-09-12T20:36:51.551Z,100933.69
2022-09-12T20:39:23.961Z,100926.09
2022-09-12T20:41:53.029Z,100914.06
2022-09-12T20:44:23.031Z,100911.69
2022-09-12T20:46:51.950Z,100909.84
2022-09-12T20:49:20.465Z,100899.84
2022-09-12T20:51:49.623Z,100899.16
2022-09-12T20:54:25.055Z,100893.72
2022-09-12T20:56:53.448Z,100900.72
2022-09-12T20:59:23.893Z,100883.75
2022-09-12T21:01:52.658Z,100887.44
2022-09-12T21:04:25.583Z,100883.22
2022-09-12T21:06:56.105Z,100886.25
2022-09-12T21:09:24.411Z,100873.69
2022-09-12T21:11:52.758Z,100867.75
2022-09-12T21:14:30.867Z,100872.16
2022-09-12T21:16:59.647Z,100862.84
2022-09-12T21:19:28.109Z,100847.97
2022-09-12T21:21:56.382Z,100850.50
2022-09-12T21:24:25.682Z,100844.94
2022-09-12T21:26:54.616Z,100842.56
2022-09-12T21:29:27.216Z,100832.22
2022-09-12T21:31:56.132Z,100835.78
2022-09-12T21:34:24.360Z,100836.97
2022-09-12T21:36:53.033Z,100837.16
2022-09-12T21:39:21.714Z,100831.19
2022-09-12T21:41:50.360Z,100833.88
2022-09-12T21:44:19.452Z,100838.59
2022-09-12T21:46:49.284Z,100830.31
2022-09-12T21:49:17.768Z,100829.81
2022-09-12T21:51:46.277Z,100832.16
2022-09-12T21:54:15.525Z,100829.91
2022-09-12T21:56:46.997Z,100817.53
2022-09-12T21:59:15.613Z,100816.84
2022-09-12T22:01:44.739Z,100817.53
2022-09-12T22:04:14.775Z,100817.69
2022-09-12T22:06:43.402Z,100805.34
2022-09-12T22:09:11.861Z,100807.91
2022-09-12T22:11:41.655Z,100807.06
2022-09-12T22:14:10.022Z,100796.34
2022-09-12T22:16:38.634Z,100798.66
2022-09-12T22:19:08.769Z,100795.44
2022-09-12T22:21:58.529Z,100793.00
2022-09-12T22:24:29.246Z,100780.41
2022-09-12T22:27:00.357Z,100771.22
2022-09-12T22:29:29.004Z,100769.69
2022-09-12T22:31:59.406Z,100767.84
2022-09-12T22:34:29.067Z,100770.81
2022-09-12T22:36:59.090Z,100778.84
2022-09-12T22:39:27.615Z,100780.03
2022-09-12T22:41:56.409Z,100772.63
2022-09-12T22:44:24.876Z,100770.91
2022-09-12T22:46:53.217Z,100764.81
2022-09-12T22:49:21.749Z,100752.75
2022-09-12T22:51:50.319Z,100738.69
2022-09-12T22:54:20.430Z,100741.91
2022-09-12T22:56:49.008Z,100737.34
2022-09-12T22:59:18.154Z,100729.44
2022-09-12T23:01:47.021Z,100712.81
2022-09-12T23:04:15.411Z,100710.13
2022-09-12T23:06:44.202Z,100706.06
2022-09-12T23:09:13.069Z,100700.50
2022-09-12T23:11:43.258Z,100688.66
2022-09-12T23:14:12.030Z,100703.91
2022-09-12T23:16:43.290Z,100688.31
2022-09-12T23:19:12.784Z,100697.63
2022-09-12T23:21:41.278Z,100693.72
2022-09-12T23:24:09.807Z,100691.00
2022-09-12T23:26:38.646Z,100687.81
2022-09-12T23:29:08.968Z,100689.88
2022-09-12T23:31:37.857Z,100679.53
2022-09-12T23:34:08.102Z,100684.56
2022-09-12T23:36:36.726Z,100684.56
2022-09-12T23:39:05.514Z,100677.81
2022-09-12T23:41:38.328Z,100680.53
2022-09-12T23:44:08.581Z,100677.50
2022-09-12T23:46:39.881Z,100659.53
2022-09-12T23:49:09.243Z,100657.00
2022-09-12T23:51:37.756Z,100654.13
2022-09-12T23:54:06.190Z,100658.88
2022-09-12T23:56:34.439Z,100657.88
2022-09-12T23:59:05.403Z,100648.88
